Time;durP1;ratioP1;P1;durP2;ratioP2;P2;SDS_P1;SDS_P2;PMS_P1;PMS_P2;Temp;Humidity;BMP_temperature;BMP_pressure;BME280_temperature;BME280_humidity;BME280_pressure;Samples;Min_cycle;Max_cycle;Signal;HPM_P1;HPM_P2
2023/02/11 00:01:26;;;;;;;48.95;21.70;;;-2.80;99.90;;;;;;5075092;28;20036;-66
2023/02/11 00:03:52;;;;;;;53.15;22.73;;;-2.90;99.90;;;;;;5066680;28;20043;-67
2023/02/11 00:06:18;;;;;;;55.08;23.65;;;-2.90;99.90;;;;;;5072789;28;20037;-67
2023/02/11 00:08:44;;;;;;;48.55;22.15;;;-3.00;99.90;;;;;;5078260;28;20496;-66
2023/02/11 00:11:14;;;;;;;51.65;23.38;;;-3.00;99.90;;;;;;5074015;28;20040;-66
2023/02/11 00:13:41;;;;;;;57.33;25.85;;;-2.90;99.90;;;;;;5080481;28;20021;-66
2023/02/11 00:16:13;;;;;;;57.28;26.25;;;-2.90;99.90;;;;;;5071805;28;20024;-67
2023/02/11 00:18:39;;;;;;;52.25;23.73;;;-3.00;99.90;;;;;;5074819;28;20028;-67
2023/02/11 00:21:10;;;;;;;52.72;23.73;;;-3.00;99.90;;;;;;5072565;28;20039;-67
2023/02/11 00:23:35;;;;;;;51.05;24.30;;;-3.00;99.90;;;;;;5073154;28;20125;-67
2023/02/11 00:26:01;;;;;;;58.60;27.27;;;-3.10;99.90;;;;;;5054897;28;20079;-67
2023/02/11 00:28:27;;;;;;;57.33;25.27;;;-3.10;99.90;;;;;;5069883;28;20058;-67
2023/02/11 00:30:54;;;;;;;60.05;27.45;;;-3.10;99.90;;;;;;5071617;28;20056;-66
2023/02/11 00:33:20;;;;;;;55.97;25.27;;;-3.10;99.90;;;;;;5070583;28;20035;-67
2023/02/11 00:35:45;;;;;;;59.28;25.98;;;-3.20;99.90;;;;;;5073053;28;20025;-67
2023/02/11 00:38:11;;;;;;;58.05;26.35;;;-3.10;99.90;;;;;;5062869;28;20482;-67
2023/02/11 00:40:36;;;;;;;62.45;25.58;;;-3.10;99.90;;;;;;5071111;28;20101;-67
2023/02/11 00:43:02;;;;;;;58.92;25.58;;;-3.10;99.90;;;;;;5071303;28;20067;-66
2023/02/11 00:45:29;;;;;;;53.25;25.85;;;-3.10;99.90;;;;;;5072849;28;20033;-67
2023/02/11 00:47:55;;;;;;;56.85;24.65;;;-3.10;99.90;;;;;;5071131;28;20028;-67
2023/02/11 00:50:20;;;;;;;57.25;26.25;;;-3.10;99.90;;;;;;5071875;28;20848;-67
2023/02/11 00:52:46;;;;;;;51.47;24.58;;;-3.20;99.90;;;;;;5071576;28;20032;-67
2023/02/11 00:55:12;;;;;;;54.85;25.42;;;-3.20;99.90;;;;;;5071487;28;20496;-67
2023/02/11 00:57:37;;;;;;;58.70;28.13;;;-3.20;99.90;;;;;;5072963;28;20047;-67
2023/02/11 01:00:05;;;;;;;55.67;25.98;;;-3.30;99.90;;;;;;5070801;28;20028;-67
2023/02/11 01:02:31;;;;;;;65.60;28.88;;;-3.30;99.90;;;;;;5071159;28;20074;-67
2023/02/11 01:04:58;;;;;;;69.13;28.13;;;-3.30;99.90;;;;;;5070532;28;20032;-67
2023/02/11 01:07:25;;;;;;;64.97;26.98;;;-3.20;99.90;;;;;;5070366;28;20040;-66
2023/02/11 01:09:50;;;;;;;65.90;27.90;;;-3.20;99.90;;;;;;5077927;28;20081;-68
2023/02/11 01:12:16;;;;;;;58.28;26.63;;;-3.10;99.90;;;;;;5066839;28;20028;-66
2023/02/11 01:14:42;;;;;;;59.40;27.00;;;-3.20;99.90;;;;;;5070363;28;20508;-66
2023/02/11 01:17:07;;;;;;;62.22;28.58;;;-3.20;99.90;;;;;;5070916;28;20044;-68
2023/02/11 01:19:33;;;;;;;62.95;29.25;;;-3.10;99.90;;;;;;5069744;28;20143;-68
2023/02/11 01:21:59;;;;;;;60.38;28.13;;;-3.10;99.90;;;;;;5076358;28;20029;-67
2023/02/11 01:24:24;;;;;;;64.00;28.92;;;-3.00;99.90;;;;;;5071309;28;20111;-67
2023/02/11 01:26:50;;;;;;;56.60;27.45;;;-2.90;99.90;;;;;;5074757;28;20516;-67
2023/02/11 01:29:15;;;;;;;68.57;29.52;;;-2.90;99.90;;;;;;5080567;28;20063;-67
2023/02/11 01:31:41;;;;;;;62.47;28.20;;;-2.90;99.90;;;;;;5089188;28;20461;-67
2023/02/11 01:34:06;;;;;;;52.25;25.65;;;-2.90;99.90;;;;;;5086863;28;20464;-67
2023/02/11 01:36:32;;;;;;;55.58;24.85;;;-2.90;99.90;;;;;;5090002;28;20020;-67
2023/02/11 01:38:58;;;;;;;52.35;24.17;;;-2.90;99.90;;;;;;5085689;28;20497;-67
2023/02/11 01:41:23;;;;;;;57.75;27.27;;;-3.00;99.90;;;;;;5090629;28;20028;-67
2023/02/11 01:43:49;;;;;;;60.17;27.42;;;-3.00;99.90;;;;;;5072103;28;20043;-66
2023/02/11 01:46:27;;;;;;;60.38;27.17;;;-3.10;99.90;;;;;;5084408;28;20037;-68
2023/02/11 01:49:09;;;;;;;72.18;29.63;;;-3.00;99.90;;;;;;5095421;28;20118;-66
2023/02/11 01:51:52;;;;;;;57.50;25.48;;;-2.80;99.90;;;;;;5092889;28;20028;-67
2023/02/11 01:57:22;;;;;;;65.75;27.80;;;-2.80;99.90;;;;;;5092183;28;20507;-67
2023/02/11 02:00:11;;;;;;;61.15;26.65;;;-2.90;99.90;;;;;;5090223;28;20032;-68
2023/02/11 02:02:43;;;;;;;55.55;24.08;;;-3.00;99.90;;;;;;5093964;28;20016;-67
2023/02/11 02:05:31;;;;;;;62.95;27.35;;;-3.10;99.90;;;;;;5090885;28;20043;-67
2023/02/11 02:08:09;;;;;;;56.63;25.10;;;-3.10;99.90;;;;;;5093690;28;20036;-67
2023/02/11 02:10:39;;;;;;;57.17;24.88;;;-3.10;99.90;;;;;;5074576;28;20033;-67
2023/02/11 02:13:05;;;;;;;66.28;27.70;;;-3.20;99.90;;;;;;5103872;28;20423;-66
2023/02/11 02:15:38;;;;;;;57.53;25.95;;;-3.20;99.90;;;;;;5093087;28;20074;-66
2023/02/11 02:18:11;;;;;;;65.85;29.13;;;-3.20;99.90;;;;;;5099551;28;20036;-67
2023/02/11 02:20:55;;;;;;;55.33;27.23;;;-3.20;99.90;;;;;;5093380;28;20016;-66
2023/02/11 02:23:42;;;;;;;60.00;27.42;;;-3.10;99.90;;;;;;5089889;28;20077;-66
2023/02/11 02:26:34;;;;;;;56.47;26.45;;;-3.10;99.90;;;;;;5104485;28;20043;-67
2023/02/11 02:29:29;;;;;;;57.60;25.85;;;-3.10;99.90;;;;;;5096970;28;20119;-66
2023/02/11 02:32:29;;;;;;;54.45;25.88;;;-3.10;99.90;;;;;;5094398;28;20107;-66
2023/02/11 02:35:19;;;;;;;60.15;26.13;;;-3.10;99.90;;;;;;5094998;28;20137;-66
2023/02/11 02:37:55;;;;;;;50.72;24.25;;;-3.10;99.90;;;;;;5093988;28;20074;-67
2023/02/11 02:40:27;;;;;;;57.35;27.02;;;-3.10;99.90;;;;;;5088832;28;20052;-67
2023/02/11 02:42:54;;;;;;;59.08;27.58;;;-3.10;99.90;;;;;;5098694;28;20047;-67
2023/02/11 02:45:19;;;;;;;59.15;26.48;;;-3.10;99.90;;;;;;5092012;28;20020;-66
2023/02/11 02:47:45;;;;;;;58.15;27.75;;;-3.10;99.90;;;;;;5096138;28;20036;-67
2023/02/11 02:50:15;;;;;;;61.08;26.98;;;-3.10;99.90;;;;;;5096548;28;20048;-67
2023/02/11 02:53:08;;;;;;;56.10;26.55;;;-3.10;99.90;;;;;;5093060;28;20419;-67
2023/02/11 02:55:58;;;;;;;58.47;26.05;;;-3.10;99.90;;;;;;5092040;28;20107;-67
2023/02/11 02:58:31;;;;;;;54.97;26.13;;;-3.00;99.90;;;;;;5092658;28;20039;-66
2023/02/11 03:01:27;;;;;;;55.97;26.33;;;-3.00;99.90;;;;;;5088468;28;20096;-66
2023/02/11 03:04:01;;;;;;;58.13;26.88;;;-2.90;99.90;;;;;;5056820;28;20039;-67
2023/02/11 03:06:42;;;;;;;60.35;28.33;;;-2.90;99.90;;;;;;5102009;28;20020;-67
2023/02/11 03:09:13;;;;;;;56.25;24.70;;;-2.80;99.90;;;;;;5076307;28;20044;-67
2023/02/11 03:11:39;;;;;;;66.22;26.50;;;-2.70;99.90;;;;;;5106616;28;20696;-67
2023/02/11 03:14:09;;;;;;;62.38;27.77;;;-2.60;99.90;;;;;;5092732;28;20107;-66
2023/02/11 03:16:38;;;;;;;56.97;25.80;;;-2.60;99.90;;;;;;5073067;28;20073;-66
2023/02/11 03:19:16;;;;;;;58.92;27.60;;;-2.70;99.90;;;;;;5092455;28;20038;-67
2023/02/11 03:21:44;;;;;;;59.00;28.50;;;-2.70;99.90;;;;;;5090475;28;20032;-66
2023/02/11 03:24:19;;;;;;;57.60;26.75;;;-2.80;99.90;;;;;;5082781;28;20028;-67
2023/02/11 03:26:53;;;;;;;54.67;25.20;;;-2.80;99.90;;;;;;5092193;28;20048;-66
2023/02/11 03:29:24;;;;;;;57.20;26.60;;;-2.90;99.90;;;;;;5092788;28;20036;-66
2023/02/11 03:31:53;;;;;;;57.65;27.50;;;-2.90;99.90;;;;;;5093046;28;20024;-67
2023/02/11 03:34:50;;;;;;;54.92;26.42;;;-3.00;99.90;;;;;;5090731;28;20020;-66
2023/02/11 03:37:23;;;;;;;56.17;24.75;;;-3.00;99.90;;;;;;5072920;28;20377;-66
2023/02/11 03:40:02;;;;;;;63.63;27.15;;;-3.10;99.90;;;;;;5099530;28;20031;-67
2023/02/11 03:42:33;;;;;;;58.15;27.35;;;-3.10;99.90;;;;;;5091143;28;20496;-67
2023/02/11 03:45:14;;;;;;;52.70;25.70;;;-3.10;99.90;;;;;;5099168;28;20485;-67
2023/02/11 03:47:46;;;;;;;58.00;26.20;;;-3.10;99.90;;;;;;5091668;28;20028;-66
2023/02/11 03:50:14;;;;;;;53.83;24.77;;;-3.10;99.90;;;;;;5092135;28;20032;-66
2023/02/11 03:52:40;;;;;;;51.90;25.13;;;-3.20;99.90;;;;;;5091890;28;20032;-67
2023/02/11 03:55:12;;;;;;;55.75;25.30;;;-3.20;99.90;;;;;;5091961;28;20107;-67
2023/02/11 03:57:38;;;;;;;64.95;28.27;;;-3.20;99.90;;;;;;5091396;28;20285;-68
2023/02/11 04:00:05;;;;;;;62.75;26.92;;;-3.20;99.90;;;;;;5091876;28;20102;-67
2023/02/11 04:02:33;;;;;;;55.85;26.73;;;-3.10;99.90;;;;;;5090841;28;20066;-67
2023/02/11 04:04:59;;;;;;;57.45;26.10;;;-3.00;99.90;;;;;;5103354;28;20032;-67
2023/02/11 04:07:25;;;;;;;62.45;27.30;;;-2.80;99.90;;;;;;5095908;28;20042;-67
2023/02/11 04:09:51;;;;;;;54.83;25.80;;;-2.70;99.90;;;;;;5091907;28;20026;-67
2023/02/11 04:12:17;;;;;;;55.65;27.15;;;-2.50;99.90;;;;;;5092026;28;20058;-67
2023/02/11 04:14:43;;;;;;;56.45;24.92;;;-2.40;99.90;;;;;;5090771;28;20059;-67
2023/02/11 04:17:08;;;;;;;49.42;23.75;;;-2.30;99.90;;;;;;5097396;28;20063;-67
2023/02/11 04:19:34;;;;;;;50.30;24.08;;;-2.30;99.90;;;;;;5094464;28;20031;-67
2023/02/11 04:22:00;;;;;;;52.50;25.15;;;-2.40;99.90;;;;;;5092087;28;20077;-67
2023/02/11 04:24:25;;;;;;;58.50;26.15;;;-2.30;99.90;;;;;;5090294;28;20035;-67
2023/02/11 04:26:51;;;;;;;55.25;26.13;;;-2.30;99.90;;;;;;5096663;28;20044;-66
2023/02/11 04:29:17;;;;;;;53.83;24.10;;;-2.20;99.90;;;;;;5091018;28;20035;-67
2023/02/11 04:31:43;;;;;;;55.08;25.83;;;-2.20;99.90;;;;;;5096302;28;20074;-67
2023/02/11 04:34:09;;;;;;;53.13;25.23;;;-2.10;99.90;;;;;;5088962;28;20473;-67
2023/02/11 04:36:34;;;;;;;50.53;24.80;;;-2.00;99.90;;;;;;5099223;28;20032;-67
2023/02/11 04:39:00;;;;;;;48.47;23.65;;;-1.90;99.90;;;;;;5089615;28;20043;-68
2023/02/11 04:41:25;;;;;;;46.40;22.08;;;-1.80;99.90;;;;;;5092142;28;20101;-67
2023/02/11 04:43:51;;;;;;;46.58;22.33;;;-1.80;99.90;;;;;;5090937;28;20457;-67
2023/02/11 04:46:16;;;;;;;46.83;23.42;;;-1.70;99.90;;;;;;5091257;28;20127;-67
2023/02/11 04:48:42;;;;;;;53.20;23.50;;;-1.60;99.90;;;;;;5093474;28;20028;-67
2023/02/11 04:51:08;;;;;;;45.47;22.38;;;-1.50;99.90;;;;;;5094966;28;20028;-68
2023/02/11 04:53:34;;;;;;;49.25;23.23;;;-1.50;99.90;;;;;;5092588;28;20020;-67
2023/02/11 04:55:59;;;;;;;47.78;23.83;;;-1.40;99.90;;;;;;5091375;28;20036;-67
2023/02/11 04:58:25;;;;;;;44.90;23.35;;;-1.40;99.90;;;;;;5090194;28;20036;-67
2023/02/11 05:00:51;;;;;;;53.22;24.73;;;-1.40;99.90;;;;;;5091661;28;20039;-67
2023/02/11 05:03:16;;;;;;;53.42;25.60;;;-1.40;99.90;;;;;;5105004;28;20115;-66
2023/02/11 05:05:42;;;;;;;50.97;25.70;;;-1.30;99.90;;;;;;5094760;28;20107;-67
2023/02/11 05:08:09;;;;;;;46.75;24.40;;;-1.20;99.90;;;;;;5089995;28;20036;-68
2023/02/11 05:10:35;;;;;;;50.10;23.65;;;-1.10;99.90;;;;;;5091457;28;20032;-66
2023/02/11 05:13:01;;;;;;;49.03;23.73;;;-1.10;99.90;;;;;;5093720;28;20104;-67
2023/02/11 05:15:27;;;;;;;47.95;24.10;;;-1.10;99.90;;;;;;5096656;28;20052;-66
2023/02/11 05:17:52;;;;;;;46.90;23.10;;;-1.10;99.90;;;;;;5091903;28;20093;-68
2023/02/11 05:20:18;;;;;;;57.40;26.48;;;-1.10;99.90;;;;;;5090624;28;20373;-68
2023/02/11 05:22:44;;;;;;;53.50;25.10;;;-1.10;99.90;;;;;;5089283;28;20032;-68
2023/02/11 05:25:10;;;;;;;50.70;25.50;;;-1.00;99.90;;;;;;5080230;28;20081;-68
2023/02/11 05:27:35;;;;;;;46.45;23.73;;;-1.00;99.90;;;;;;5065443;28;20111;-67
2023/02/11 05:30:01;;;;;;;47.20;23.13;;;-1.00;99.90;;;;;;5067475;28;20028;-69
2023/02/11 05:32:27;;;;;;;47.58;24.65;;;-1.00;99.90;;;;;;5070813;28;20098;-66
2023/02/11 05:34:53;;;;;;;45.97;23.85;;;-0.90;99.90;;;;;;5070130;28;20031;-66
2023/02/11 05:37:18;;;;;;;52.95;24.38;;;-0.80;99.90;;;;;;5073644;28;20040;-66
2023/02/11 05:39:44;;;;;;;52.30;25.58;;;-0.70;99.90;;;;;;5076436;28;20021;-67
2023/02/11 05:42:10;;;;;;;46.65;23.85;;;-0.80;99.90;;;;;;5070486;28;20032;-67
2023/02/11 05:44:35;;;;;;;48.75;24.58;;;-0.90;99.90;;;;;;5071780;28;20111;-67
2023/02/11 05:47:01;;;;;;;49.17;24.92;;;-0.90;99.90;;;;;;5072728;28;20103;-67
2023/02/11 05:49:27;;;;;;;51.00;26.10;;;-0.90;99.90;;;;;;5076999;28;20024;-67
2023/02/11 05:51:52;;;;;;;44.42;24.52;;;-0.90;99.90;;;;;;5075918;28;20032;-67
2023/02/11 05:54:18;;;;;;;51.10;25.92;;;-0.90;99.90;;;;;;5076940;28;20528;-67
2023/02/11 05:56:43;;;;;;;49.33;26.65;;;-1.00;99.90;;;;;;5066547;28;20123;-67
2023/02/11 05:59:12;;;;;;;45.22;23.70;;;-1.10;99.90;;;;;;5073495;28;20029;-67
2023/02/11 06:01:38;;;;;;;49.33;25.85;;;-1.10;99.90;;;;;;5071951;28;20722;-68
2023/02/11 06:04:03;;;;;;;46.92;24.90;;;-1.10;99.90;;;;;;5079829;28;20032;-66
2023/02/11 06:06:29;;;;;;;52.17;24.83;;;-1.10;99.90;;;;;;5064783;28;20370;-67
2023/02/11 06:08:55;;;;;;;56.40;26.55;;;-1.10;99.90;;;;;;5081362;28;20027;-67
2023/02/11 06:11:20;;;;;;;53.00;25.88;;;-1.00;99.90;;;;;;5067333;28;20607;-67
2023/02/11 06:13:46;;;;;;;53.67;25.85;;;-1.00;99.90;;;;;;5080464;28;20028;-68
2023/02/11 06:16:12;;;;;;;44.17;24.42;;;-0.90;99.90;;;;;;5071265;28;20039;-67
2023/02/11 06:18:37;;;;;;;48.95;25.23;;;-0.80;99.90;;;;;;5078866;28;20090;-66
2023/02/11 06:21:06;;;;;;;49.20;26.52;;;-0.80;99.90;;;;;;5071499;28;20107;-66
2023/02/11 06:23:32;;;;;;;53.78;26.35;;;-0.80;99.90;;;;;;5082457;28;20035;-66
2023/02/11 06:26:02;;;;;;;54.05;25.60;;;-0.80;99.90;;;;;;5068869;28;20090;-66
2023/02/11 06:28:30;;;;;;;46.25;24.38;;;-0.90;99.90;;;;;;5071475;28;20064;-67
2023/02/11 06:30:56;;;;;;;48.42;26.30;;;-0.90;99.90;;;;;;5064397;28;20475;-67
2023/02/11 06:33:21;;;;;;;49.28;25.42;;;-1.00;99.90;;;;;;5074320;28;20096;-67
2023/02/11 06:35:47;;;;;;;51.00;27.25;;;-0.90;99.90;;;;;;5067678;28;20108;-68
2023/02/11 06:38:13;;;;;;;49.53;26.33;;;-0.90;99.90;;;;;;5074927;28;20465;-68
2023/02/11 06:40:38;;;;;;;54.78;26.83;;;-0.90;99.90;;;;;;5067751;28;20025;-69
2023/02/11 06:43:04;;;;;;;54.58;26.90;;;-0.90;99.90;;;;;;5073272;28;20028;-67
2023/02/11 06:45:30;;;;;;;49.38;24.98;;;-0.90;99.90;;;;;;5057871;28;20028;-69
2023/02/11 06:47:55;;;;;;;46.80;25.13;;;-0.90;99.90;;;;;;5076921;28;20036;-67
2023/02/11 06:50:21;;;;;;;48.90;25.77;;;-0.80;99.90;;;;;;5073767;28;20056;-68
2023/02/11 06:52:46;;;;;;;48.47;25.38;;;-0.70;99.90;;;;;;5079544;28;20081;-68
2023/02/11 06:55:12;;;;;;;50.20;26.35;;;-0.70;99.90;;;;;;5071240;28;20918;-67
2023/02/11 06:57:38;;;;;;;53.30;26.70;;;-0.70;99.90;;;;;;5071711;28;20060;-67
2023/02/11 07:00:04;;;;;;;48.67;24.65;;;-0.70;99.90;;;;;;5069796;28;20192;-68
2023/02/11 07:02:29;;;;;;;49.72;24.92;;;-0.70;99.90;;;;;;5071560;28;20086;-67
2023/02/11 07:04:55;;;;;;;42.55;23.70;;;-0.70;99.90;;;;;;5064282;28;20529;-68
2023/02/11 07:07:20;;;;;;;50.10;25.75;;;-0.70;99.90;;;;;;5067405;28;20093;-68
2023/02/11 07:09:46;;;;;;;54.75;26.48;;;-0.70;99.90;;;;;;5070638;28;20536;-67
2023/02/11 07:12:11;;;;;;;44.20;23.35;;;-0.70;99.90;;;;;;5066118;28;20028;-67
2023/02/11 07:14:37;;;;;;;48.75;25.35;;;-0.70;99.90;;;;;;5072388;28;20028;-68
2023/02/11 07:17:03;;;;;;;46.35;25.40;;;-0.70;99.90;;;;;;5072623;28;20453;-66
2023/02/11 07:19:29;;;;;;;53.40;26.67;;;-0.60;99.90;;;;;;5077403;28;20040;-68
2023/02/11 07:21:55;;;;;;;49.35;25.88;;;-0.60;99.90;;;;;;5067258;28;20146;-67
2023/02/11 07:24:20;;;;;;;50.25;25.75;;;-0.50;99.90;;;;;;5070989;28;20109;-67
2023/02/11 07:26:46;;;;;;;49.47;25.02;;;-0.40;99.90;;;;;;5075839;28;20123;-67
2023/02/11 07:29:11;;;;;;;47.03;26.02;;;-0.20;99.90;;;;;;5094538;28;20036;-67
2023/02/11 07:31:37;;;;;;;47.83;25.58;;;-0.20;99.90;;;;;;5089136;28;20532;-67
2023/02/11 07:34:02;;;;;;;48.08;26.17;;;-0.30;99.90;;;;;;5087591;28;20028;-68
2023/02/11 07:36:30;;;;;;;48.92;25.73;;;-0.30;99.90;;;;;;5086551;28;20028;-67
2023/02/11 07:38:56;;;;;;;48.55;25.92;;;-0.30;99.90;;;;;;5093030;28;20058;-67
2023/02/11 07:41:23;;;;;;;47.15;25.15;;;-0.30;99.90;;;;;;5086129;28;20111;-67
2023/02/11 07:43:49;;;;;;;50.22;25.90;;;-0.20;99.90;;;;;;5097424;28;20059;-67
2023/02/11 07:46:21;;;;;;;44.47;23.70;;;-0.20;99.90;;;;;;5085295;28;20020;-67
2023/02/11 07:48:47;;;;;;;49.58;26.45;;;-0.10;99.90;;;;;;5091581;28;20377;-67
2023/02/11 07:51:39;;;;;;;43.03;24.83;;;-0.10;99.90;;;;;;5082979;28;20031;-66
2023/02/11 07:54:05;;;;;;;44.60;23.92;;;0.10;99.90;;;;;;5069144;28;20463;-65
2023/02/11 07:56:32;;;;;;;44.00;24.33;;;0.10;99.90;;;;;;5091511;28;20060;-66
2023/02/11 07:59:01;;;;;;;49.72;25.00;;;0.20;99.90;;;;;;5089751;28;20074;-65
2023/02/11 08:01:27;;;;;;;40.13;22.77;;;0.40;99.90;;;;;;5089557;28;20024;-64
2023/02/11 08:03:57;;;;;;;42.10;22.83;;;0.50;99.90;;;;;;5077084;28;20024;-65
2023/02/11 08:06:25;;;;;;;45.63;23.90;;;0.70;99.90;;;;;;5090623;28;20065;-67
2023/02/11 08:08:51;;;;;;;42.92;24.02;;;0.90;99.90;;;;;;5091077;28;20040;-66
2023/02/11 08:11:23;;;;;;;44.47;22.60;;;1.00;99.90;;;;;;5089964;28;20032;-67
2023/02/11 08:13:49;;;;;;;44.05;23.48;;;1.20;99.90;;;;;;5091225;28;20063;-67
2023/02/11 08:16:22;;;;;;;44.70;22.55;;;1.40;99.90;;;;;;5087357;28;20446;-67
2023/02/11 08:18:48;;;;;;;43.75;24.45;;;1.70;99.90;;;;;;5090918;28;20043;-68
2023/02/11 08:21:14;;;;;;;44.17;24.25;;;1.80;99.90;;;;;;5082923;28;20032;-67
2023/02/11 08:23:41;;;;;;;45.90;25.30;;;2.00;99.90;;;;;;5089609;28;20024;-67
2023/02/11 08:26:13;;;;;;;48.33;25.42;;;2.10;99.90;;;;;;5089393;28;20436;-68
2023/02/11 08:28:41;;;;;;;45.55;25.65;;;2.10;99.90;;;;;;5079320;27;20098;-66
2023/02/11 08:31:10;;;;;;;45.85;24.13;;;2.00;99.90;;;;;;5075625;28;20032;-66
2023/02/11 08:33:36;;;;;;;47.13;25.83;;;1.90;99.90;;;;;;5070883;28;20120;-65
2023/02/11 08:36:15;;;;;;;43.30;24.10;;;1.80;99.90;;;;;;5067312;28;20027;-68
2023/02/11 08:38:41;;;;;;;50.13;26.27;;;1.80;99.90;;;;;;5064804;28;20105;-68
2023/02/11 08:41:07;;;;;;;41.67;23.70;;;1.80;99.90;;;;;;5071789;28;20028;-69
2023/02/11 08:43:34;;;;;;;43.30;23.63;;;1.70;99.90;;;;;;5083013;28;20020;-69
2023/02/11 08:45:59;;;;;;;39.35;22.55;;;1.60;99.90;;;;;;5071626;28;20024;-68
2023/02/11 08:48:27;;;;;;;42.25;23.95;;;1.60;99.90;;;;;;5077812;28;20036;-68
2023/02/11 08:50:56;;;;;;;41.65;23.98;;;1.50;99.90;;;;;;5069049;28;20082;-68
2023/02/11 08:53:22;;;;;;;43.90;23.58;;;1.60;99.90;;;;;;5064920;28;20104;-70
2023/02/11 08:55:52;;;;;;;38.78;21.13;;;1.60;99.90;;;;;;5067394;28;20024;-69
2023/02/11 08:58:19;;;;;;;53.35;28.83;;;1.70;99.90;;;;;;5075929;28;20516;-71
2023/02/11 09:00:45;;;;;;;54.75;29.77;;;1.90;99.90;;;;;;5069209;28;20024;-69
2023/02/11 09:03:11;;;;;;;45.65;25.45;;;2.00;99.90;;;;;;5073026;28;20035;-69
2023/02/11 09:05:45;;;;;;;42.97;23.67;;;2.10;99.90;;;;;;5061544;28;20082;-70
2023/02/11 09:08:11;;;;;;;42.45;23.08;;;2.30;99.90;;;;;;5075009;28;20041;-82
2023/02/11 09:10:37;;;;;;;42.38;22.95;;;2.40;99.90;;;;;;5066676;28;20586;-69
2023/02/11 09:13:04;;;;;;;44.15;23.80;;;;;;;;;;5067921;28;20063;-68
2023/02/11 09:15:30;;;;;;;52.03;26.58;;;;;;;;;;5068880;28;20031;-68
2023/02/11 09:17:56;;;;;;;44.35;24.58;;;3.20;99.90;;;;;;5069647;28;20033;-68
2023/02/11 09:20:22;;;;;;;47.55;25.15;;;3.20;99.90;;;;;;5068233;28;20025;-67
2023/02/11 09:22:48;;;;;;;41.60;25.15;;;3.20;99.90;;;;;;5067630;28;20062;-69
2023/02/11 09:25:13;;;;;;;46.80;26.67;;;3.10;99.90;;;;;;5072379;28;20488;-70
2023/02/11 09:27:39;;;;;;;45.13;24.92;;;3.10;99.90;;;;;;5070328;28;20374;-70
2023/02/11 09:30:05;;;;;;;43.05;25.42;;;3.20;99.90;;;;;;5048069;28;20497;-69
2023/02/11 09:32:31;;;;;;;44.33;25.55;;;3.20;99.90;;;;;;5069407;28;20103;-71
2023/02/11 09:34:56;;;;;;;44.28;25.52;;;3.30;99.90;;;;;;5072568;28;20474;-73
2023/02/11 09:37:22;;;;;;;42.38;25.67;;;3.40;99.90;;;;;;5071580;28;20017;-74
2023/02/11 09:39:47;;;;;;;44.50;25.52;;;3.50;99.90;;;;;;5069843;28;20385;-74
2023/02/11 09:42:54;;;;;;;42.85;24.40;;;3.50;99.90;;;;;;5073838;28;20047;-72
2023/02/11 09:45:25;;;;;;;40.67;23.85;;;3.60;99.90;;;;;;4997954;28;20054;-73
2023/02/11 09:47:57;;;;;;;43.60;23.85;;;3.70;99.90;;;;;;5054973;28;20094;-70
2023/02/11 09:50:33;;;;;;;36.60;22.30;;;3.90;99.90;;;;;;5067858;28;20128;-70
2023/02/11 09:53:16;;;;;;;42.08;23.17;;;4.10;99.90;;;;;;5067666;28;20420;-69
2023/02/11 09:55:46;;;;;;;43.88;26.05;;;4.30;99.90;;;;;;5069013;28;20111;-69
2023/02/11 09:58:15;;;;;;;44.95;25.63;;;4.50;99.90;;;;;;5072305;28;20394;-69
2023/02/11 10:01:22;;;;;;;49.00;25.60;;;4.70;99.90;;;;;;5078310;28;20436;-70
2023/02/11 10:04:02;;;;;;;45.67;23.80;;;4.90;99.90;;;;;;5075953;28;20531;-69
2023/02/11 10:06:43;;;;;;;45.13;24.45;;;5.00;99.90;;;;;;5069019;28;20028;-69
2023/02/11 10:09:12;;;;;;;45.60;24.73;;;5.00;99.90;;;;;;5063483;28;20072;-69
2023/02/11 10:12:24;;;;;;;40.53;24.30;;;5.10;99.90;;;;;;5064924;28;20089;-68
2023/02/11 10:14:52;;;;;;;48.13;24.95;;;5.00;99.90;;;;;;4982097;28;20045;-68
2023/02/11 10:17:36;;;;;;;42.25;23.98;;;4.90;99.90;;;;;;4984541;28;20042;-69
2023/02/11 10:20:19;;;;;;;40.20;22.35;;;4.90;99.90;;;;;;4978544;28;20038;-68
2023/02/11 10:22:53;;;;;;;42.03;24.25;;;5.00;99.90;;;;;;4985511;28;20072;-67
2023/02/11 10:25:29;;;;;;;40.92;23.35;;;5.10;99.90;;;;;;4982440;28;20110;-68
2023/02/11 10:27:58;;;;;;;46.17;23.80;;;5.10;99.90;;;;;;4983056;28;20404;-67
2023/02/11 10:30:36;;;;;;;53.13;25.15;;;;;;;;;;4982618;28;20042;-69
2023/02/11 10:33:43;;;;;;;38.88;22.75;;;5.40;99.90;;;;;;4987338;28;20049;-67
2023/02/11 10:36:13;;;;;;;43.03;24.40;;;5.40;99.90;;;;;;4979530;28;20162;-68
2023/02/11 10:38:39;;;;;;;41.80;23.15;;;5.50;99.90;;;;;;4979598;28;20303;-68
2023/02/11 10:41:05;;;;;;;39.88;23.85;;;5.60;99.90;;;;;;4987659;28;20484;-69
2023/02/11 10:43:32;;;;;;;39.40;23.73;;;5.70;99.90;;;;;;4982795;28;20497;-68
2023/02/11 10:46:01;;;;;;;41.63;24.60;;;5.80;99.90;;;;;;4984524;28;20038;-68
2023/02/11 10:48:38;;;;;;;40.03;23.20;;;5.80;99.90;;;;;;5011409;28;20048;-68
2023/02/11 10:51:21;;;;;;;34.72;21.17;;;5.70;99.90;;;;;;5073703;28;20029;-68
2023/02/11 10:54:18;;;;;;;38.35;21.80;;;5.60;99.90;;;;;;5070165;28;20028;-67
2023/02/11 10:56:58;;;;;;;40.90;22.70;;;5.70;99.90;;;;;;5082453;28;20028;-67
2023/02/11 10:59:39;;;;;;;42.38;23.50;;;5.60;99.90;;;;;;5066955;28;20048;-71
2023/02/11 11:02:30;;;;;;;37.85;21.88;;;5.60;99.90;;;;;;5066265;28;20116;-67
2023/02/11 11:04:59;;;;;;;36.25;22.65;;;5.70;99.90;;;;;;5063598;28;20035;-71
2023/02/11 11:07:30;;;;;;;37.97;21.55;;;5.90;99.90;;;;;;5076123;28;20111;-71
2023/02/11 11:10:24;;;;;;;35.33;20.00;;;5.90;99.90;;;;;;5071845;28;20042;-67
2023/02/11 11:12:49;;;;;;;31.52;19.48;;;6.00;99.90;;;;;;5075751;28;20515;-66
2023/02/11 11:15:29;;;;;;;32.00;19.45;;;6.10;99.90;;;;;;5061679;28;20032;-66
2023/02/11 11:18:27;;;;;;;27.90;17.02;;;6.30;99.90;;;;;;5066735;28;20036;-66
2023/02/11 11:20:58;;;;;;;28.90;17.13;;;6.40;99.90;;;;;;5023244;28;20433;-66
2023/02/11 11:23:24;;;;;;;29.27;17.77;;;6.50;99.90;;;;;;5064916;28;20054;-67
2023/02/11 11:26:19;;;;;;;31.45;18.42;;;6.60;99.90;;;;;;5068919;28;20031;-66
2023/02/11 11:28:53;;;;;;;25.45;15.68;;;6.60;99.90;;;;;;5074936;28;20069;-66
2023/02/11 11:31:32;;;;;;;32.20;18.50;;;6.70;99.90;;;;;;5091593;28;20031;-67
2023/02/11 11:34:00;;;;;;;24.25;13.68;;;6.90;99.90;;;;;;5090210;28;20036;-67
2023/02/11 11:36:38;;;;;;;27.98;17.23;;;7.10;99.90;;;;;;5087922;28;20384;-66
2023/02/11 11:39:22;;;;;;;23.23;15.30;;;7.10;99.90;;;;;;5099827;28;20051;-67
2023/02/11 11:41:57;;;;;;;25.13;14.93;;;7.30;99.90;;;;;;5088500;28;20194;-67
2023/02/11 11:44:25;;;;;;;21.27;13.77;;;7.40;99.90;;;;;;5096195;28;20096;-67
2023/02/11 11:47:04;;;;;;;23.77;13.45;;;7.50;99.90;;;;;;5090768;28;20028;-67
2023/02/11 11:49:36;;;;;;;20.63;12.45;;;7.60;99.90;;;;;;5094287;28;20145;-67
2023/02/11 11:52:31;;;;;;;19.10;12.40;;;7.80;99.90;;;;;;5100831;28;20486;-68
2023/02/11 11:55:10;;;;;;;20.58;12.52;;;7.90;99.90;;;;;;5074505;28;20043;-67
2023/02/11 11:57:38;;;;;;;25.80;13.65;;;8.10;99.90;;;;;;5088638;28;20032;-67
2023/02/11 12:00:09;;;;;;;22.23;14.73;;;8.30;99.90;;;;;;5087284;28;20036;-67
2023/02/11 12:03:19;;;;;;;22.27;13.40;;;8.50;99.90;;;;;;5087879;28;20028;-66
2023/02/11 12:05:44;;;;;;;21.35;12.88;;;8.60;99.90;;;;;;4999199;28;20034;-67
2023/02/11 12:08:32;;;;;;;20.13;12.75;;;8.90;99.90;;;;;;4999608;28;20387;-68
2023/02/11 12:11:01;;;;;;;20.48;13.18;;;9.10;99.90;;;;;;5056525;28;20050;-67
2023/02/11 12:13:56;;;;;;;23.65;14.13;;;9.10;99.90;;;;;;5104818;28;20024;-68
2023/02/11 12:16:38;;;;;;;22.33;14.18;;;9.10;99.90;;;;;;5092699;28;20051;-67
2023/02/11 12:19:12;;;;;;;21.08;13.27;;;9.10;99.90;;;;;;5098999;28;20122;-67
2023/02/11 12:21:54;;;;;;;19.10;12.68;;;9.10;99.90;;;;;;5091743;28;20020;-67
2023/02/11 12:24:41;;;;;;;19.92;12.90;;;9.20;99.90;;;;;;5087207;28;20034;-68
2023/02/11 12:27:21;;;;;;;18.63;12.02;;;9.40;99.90;;;;;;5089637;28;20040;-67
2023/02/11 12:29:48;;;;;;;17.47;12.10;;;;;;;;;;5086372;28;20353;-71
2023/02/11 12:32:38;;;;;;;19.27;11.52;;;;;;;;;;5089351;28;20715;-66
2023/02/11 12:35:25;;;;;;;20.10;12.13;;;;;;;;;;5079269;28;20032;-68
2023/02/11 12:38:03;;;;;;;15.98;11.15;;;;;;;;;;5088824;28;20032;-68
2023/02/11 12:40:39;;;;;;;18.42;11.48;;;;;;;;;;5088333;28;20028;-69
2023/02/11 12:43:20;;;;;;;22.08;11.45;;;;;;;;;;5081558;28;20012;-67
2023/02/11 12:45:45;;;;;;;;;;;;;;;;;;5099247;28;20020;-67
2023/02/11 12:48:21;;;;;;;16.45;9.63;;;;;;;;;;5079323;28;19911;-68
2023/02/11 12:50:50;;;;;;;17.63;10.27;;;;;;;;;;5096485;28;20020;-66
2023/02/11 12:53:22;;;;;;;16.13;9.25;;;;;;;;;;5094055;28;20020;-67
2023/02/11 12:55:50;;;;;;;16.35;8.63;;;;;;;;;;5093592;28;20373;-68
2023/02/11 12:58:22;;;;;;;17.83;8.80;;;;;;;;;;5095785;28;20032;-67